Time;durP1;ratioP1;P1;durP2;ratioP2;P2;SDS_P1;SDS_P2;PMS_P1;PMS_P2;Temp;Humidity;BMP_temperature;BMP_pressure;BME280_temperature;BME280_humidity;BME280_pressure;Samples;Min_cycle;Max_cycle;Signal;HPM_P1;HPM_P2
2022/02/23 00:01:45;;;;;;;2.60;1.50;;;7.50;99.90;;;;;;5141452;27;20279;-46
2022/02/23 00:04:11;;;;;;;2.00;1.20;;;7.30;99.90;;;;;;5141494;27;20175;-45
2022/02/23 00:06:37;;;;;;;2.13;1.33;;;7.10;99.90;;;;;;5139126;27;20834;-45
2022/02/23 00:09:03;;;;;;;2.20;1.10;;;6.80;99.90;;;;;;5140621;27;20215;-45
2022/02/23 00:11:28;;;;;;;3.03;1.27;;;6.80;99.90;;;;;;5139318;27;20195;-45
2022/02/23 00:13:54;;;;;;;2.17;1.10;;;6.80;99.90;;;;;;5140323;27;20469;-45
2022/02/23 00:16:20;;;;;;;3.20;1.33;;;6.70;99.90;;;;;;5140752;27;20183;-44
2022/02/23 00:18:47;;;;;;;5.30;1.33;;;6.70;99.90;;;;;;5138830;27;20209;-45
2022/02/23 00:21:13;;;;;;;5.80;1.30;;;6.60;99.90;;;;;;5141405;27;20585;-45
2022/02/23 00:23:39;;;;;;;3.17;1.50;;;6.50;99.90;;;;;;5140476;27;20425;-45
2022/02/23 00:26:05;;;;;;;4.70;1.43;;;6.50;99.90;;;;;;5141819;27;20416;-45
2022/02/23 00:28:30;;;;;;;1.60;1.00;;;6.50;99.90;;;;;;5140300;27;20263;-44
2022/02/23 00:30:56;;;;;;;2.63;1.10;;;6.50;99.90;;;;;;5140902;27;20190;-45
2022/02/23 00:33:21;;;;;;;3.47;1.13;;;6.40;99.90;;;;;;5139914;27;20268;-45
2022/02/23 00:35:47;;;;;;;4.63;1.10;;;6.40;99.90;;;;;;5140902;27;20284;-45
2022/02/23 00:38:12;;;;;;;4.33;1.43;;;6.40;99.90;;;;;;5140433;27;20187;-43
2022/02/23 00:40:38;;;;;;;3.73;1.93;;;6.40;99.90;;;;;;5141112;27;20218;-45
2022/02/23 00:43:06;;;;;;;3.13;1.30;;;6.40;99.90;;;;;;5140087;27;20179;-45
2022/02/23 00:45:32;;;;;;;1.87;1.13;;;6.40;99.90;;;;;;5141828;27;20175;-45
2022/02/23 00:47:57;;;;;;;3.20;1.10;;;6.40;99.90;;;;;;5139702;27;20626;-45
2022/02/23 00:50:23;;;;;;;2.00;1.13;;;6.40;99.90;;;;;;5141655;27;20182;-45
2022/02/23 00:52:48;;;;;;;2.00;1.20;;;6.50;99.90;;;;;;5139484;27;20638;-45
2022/02/23 00:55:14;;;;;;;3.10;1.70;;;6.40;99.90;;;;;;5140934;27;20270;-46
2022/02/23 00:57:39;;;;;;;4.40;1.13;;;6.40;99.90;;;;;;5139948;27;20209;-45
2022/02/23 01:00:06;;;;;;;3.33;0.97;;;6.50;99.90;;;;;;5140787;27;20183;-45
2022/02/23 01:02:32;;;;;;;2.50;1.40;;;6.70;99.90;;;;;;5139721;27;20251;-45
2022/02/23 01:04:57;;;;;;;2.17;1.10;;;6.90;99.90;;;;;;5140720;27;20936;-45
2022/02/23 01:07:23;;;;;;;4.73;1.40;;;7.00;99.90;;;;;;5140163;27;20222;-45
2022/02/23 01:09:48;;;;;;;3.20;1.47;;;6.90;99.90;;;;;;5141113;27;20194;-45
2022/02/23 01:12:14;;;;;;;2.37;0.90;;;6.80;99.90;;;;;;5139713;27;20268;-45
2022/02/23 01:14:40;;;;;;;2.47;1.00;;;6.70;99.90;;;;;;5139318;27;20565;-44
2022/02/23 01:17:05;;;;;;;2.17;1.10;;;6.70;99.90;;;;;;5140057;27;20179;-51
2022/02/23 01:19:31;;;;;;;2.70;1.20;;;6.70;99.90;;;;;;5139395;27;20192;-45
2022/02/23 01:21:56;;;;;;;4.20;1.40;;;6.60;99.90;;;;;;5140768;27;20624;-45
2022/02/23 01:24:22;;;;;;;4.97;1.53;;;6.60;99.90;;;;;;5140099;27;20229;-45
2022/02/23 01:26:48;;;;;;;3.47;1.93;;;6.50;99.90;;;;;;5139806;27;20206;-45
2022/02/23 01:29:14;;;;;;;2.60;1.27;;;6.60;99.90;;;;;;5122654;27;20440;-45
2022/02/23 01:31:40;;;;;;;2.30;1.40;;;6.50;99.90;;;;;;5139760;27;20907;-45
2022/02/23 01:34:06;;;;;;;2.77;1.50;;;6.50;99.90;;;;;;5139192;27;20188;-45
2022/02/23 01:36:31;;;;;;;3.50;1.93;;;6.50;99.90;;;;;;5139895;27;20835;-45
2022/02/23 01:38:57;;;;;;;4.60;1.50;;;6.50;99.90;;;;;;5140222;27;20277;-45
2022/02/23 01:41:22;;;;;;;3.53;1.80;;;6.50;99.90;;;;;;5139058;27;20223;-45
2022/02/23 01:43:49;;;;;;;6.13;1.63;;;6.50;99.90;;;;;;5140370;27;20194;-45
2022/02/23 01:46:17;;;;;;;2.03;1.30;;;6.50;99.90;;;;;;5138761;27;20275;-45
2022/02/23 01:48:43;;;;;;;2.43;1.07;;;6.60;99.90;;;;;;5139320;27;20425;-45
2022/02/23 01:51:08;;;;;;;2.77;1.20;;;6.50;99.90;;;;;;5139587;27;20452;-46
2022/02/23 01:53:34;;;;;;;3.60;1.10;;;6.60;99.90;;;;;;5140145;27;20405;-45
2022/02/23 01:56:00;;;;;;;7.10;1.93;;;6.60;99.90;;;;;;5139296;27;20515;-45
2022/02/23 01:58:26;;;;;;;3.17;1.37;;;6.50;99.90;;;;;;5140313;27;20417;-45
2022/02/23 02:00:51;;;;;;;4.20;1.60;;;6.60;99.90;;;;;;5139061;27;20483;-45
2022/02/23 02:03:18;;;;;;;5.20;1.90;;;6.60;99.90;;;;;;5139983;27;20202;-45
2022/02/23 02:05:52;;;;;;;4.17;1.50;;;6.50;99.90;;;;;;5139941;27;20215;-44
2022/02/23 02:08:18;;;;;;;4.13;1.40;;;6.50;99.90;;;;;;5137961;27;20435;-45
2022/02/23 02:10:44;;;;;;;3.70;1.50;;;6.50;99.90;;;;;;5139550;27;20409;-46
2022/02/23 02:13:09;;;;;;;1.53;1.10;;;6.50;99.90;;;;;;5138592;27;20195;-45
2022/02/23 02:15:35;;;;;;;3.00;1.37;;;6.60;99.90;;;;;;5139860;27;20188;-45
2022/02/23 02:18:00;;;;;;;2.47;1.30;;;6.60;99.90;;;;;;5138325;27;20184;-45
2022/02/23 02:20:26;;;;;;;3.23;1.10;;;6.60;99.90;;;;;;5139888;27;20214;-51
2022/02/23 02:22:52;;;;;;;4.47;1.20;;;6.40;99.90;;;;;;5137897;27;20184;-45
2022/02/23 02:25:17;;;;;;;2.53;0.93;;;6.20;99.90;;;;;;5139152;27;20462;-45
2022/02/23 02:27:43;;;;;;;3.10;1.00;;;6.00;99.90;;;;;;5138009;27;20230;-45
2022/02/23 02:30:09;;;;;;;3.73;1.03;;;5.80;99.90;;;;;;5139216;27;20521;-44
2022/02/23 02:32:35;;;;;;;4.13;1.07;;;5.60;99.90;;;;;;5138224;27;20476;-45
2022/02/23 02:35:00;;;;;;;6.60;1.60;;;5.50;99.90;;;;;;5139115;27;20819;-43
2022/02/23 02:37:26;;;;;;;4.93;1.27;;;5.30;99.90;;;;;;5138180;27;20192;-45
2022/02/23 02:39:52;;;;;;;5.20;1.80;;;5.10;99.90;;;;;;5138761;27;20631;-45
2022/02/23 02:42:18;;;;;;;4.80;1.57;;;5.00;99.90;;;;;;5137722;27;20223;-45
2022/02/23 02:44:44;;;;;;;4.43;1.40;;;4.90;99.90;;;;;;5139118;27;20186;-45
2022/02/23 02:47:10;;;;;;;5.10;1.37;;;4.80;99.90;;;;;;5138884;27;20421;-45
2022/02/23 02:49:36;;;;;;;5.07;1.57;;;4.80;99.90;;;;;;5138423;27;20425;-45
2022/02/23 02:52:03;;;;;;;5.03;1.20;;;4.80;99.90;;;;;;5137321;27;20712;-45
2022/02/23 02:54:30;;;;;;;3.40;1.20;;;4.70;99.90;;;;;;5137091;27;20202;-45
2022/02/23 02:56:55;;;;;;;9.93;2.20;;;4.70;99.90;;;;;;5139134;27;20412;-45
2022/02/23 02:59:21;;;;;;;5.60;1.57;;;4.60;99.90;;;;;;5137727;27;20941;-45
2022/02/23 03:01:46;;;;;;;7.07;1.70;;;4.60;99.90;;;;;;5138899;27;20221;-45
2022/02/23 03:04:12;;;;;;;3.33;1.03;;;4.60;99.90;;;;;;5136916;27;20268;-45
2022/02/23 03:06:37;;;;;;;5.60;2.17;;;4.60;99.90;;;;;;5138782;27;20209;-45
2022/02/23 03:09:04;;;;;;;10.33;1.53;;;4.60;99.90;;;;;;5138062;27;20652;-45
2022/02/23 03:11:30;;;;;;;3.97;1.30;;;4.60;99.90;;;;;;5138799;27;20190;-45
2022/02/23 03:13:56;;;;;;;6.13;1.97;;;4.70;99.90;;;;;;5137437;27;20444;-45
2022/02/23 03:16:22;;;;;;;4.57;1.43;;;4.70;99.90;;;;;;5139021;27;20198;-45
2022/02/23 03:18:47;;;;;;;5.40;1.70;;;4.70;99.90;;;;;;5137838;27;20199;-45
2022/02/23 03:21:13;;;;;;;10.43;2.53;;;4.70;99.90;;;;;;5137313;28;20479;-45
2022/02/23 03:23:39;;;;;;;8.57;1.53;;;4.70;99.90;;;;;;5137822;27;20187;-45
2022/02/23 03:26:05;;;;;;;11.53;2.17;;;4.80;99.90;;;;;;5138377;28;20417;-45
2022/02/23 03:28:31;;;;;;;5.33;1.40;;;4.80;99.90;;;;;;5137376;27;20282;-45
2022/02/23 03:30:58;;;;;;;6.13;1.80;;;4.80;99.90;;;;;;5138556;28;20649;-45
2022/02/23 03:33:23;;;;;;;6.50;1.97;;;4.80;99.90;;;;;;5136835;27;20219;-46
2022/02/23 03:35:49;;;;;;;8.47;2.03;;;4.80;99.90;;;;;;5137777;28;20802;-46
2022/02/23 03:38:15;;;;;;;3.83;1.90;;;4.80;99.90;;;;;;5138866;27;20212;-45
2022/02/23 03:40:42;;;;;;;5.70;2.03;;;4.80;99.90;;;;;;5137008;27;20704;-45
2022/02/23 03:43:08;;;;;;;7.07;1.90;;;4.80;99.90;;;;;;5137373;28;20413;-45
2022/02/23 03:45:34;;;;;;;5.37;1.90;;;4.80;99.90;;;;;;5137595;27;20429;-45
2022/02/23 03:48:01;;;;;;;7.73;1.90;;;4.80;99.90;;;;;;5138560;28;20418;-45
2022/02/23 03:50:27;;;;;;;4.80;1.80;;;4.80;99.90;;;;;;5137425;27;20191;-45
2022/02/23 03:52:52;;;;;;;6.43;2.00;;;4.80;99.90;;;;;;5138457;27;20494;-46
2022/02/23 03:55:18;;;;;;;7.93;2.60;;;4.70;99.90;;;;;;5137495;28;20440;-44
2022/02/23 03:57:44;;;;;;;6.80;2.20;;;4.70;99.90;;;;;;5138542;28;20211;-45
2022/02/23 04:00:15;;;;;;;8.20;2.30;;;4.60;99.90;;;;;;5136569;28;20192;-45
2022/02/23 04:02:41;;;;;;;6.60;2.40;;;4.50;99.90;;;;;;5138879;27;20214;-46
2022/02/23 04:05:08;;;;;;;4.77;2.47;;;4.50;99.90;;;;;;5135635;28;20451;-45
2022/02/23 04:07:34;;;;;;;7.00;2.60;;;4.50;99.90;;;;;;5137513;27;20673;-45
2022/02/23 04:10:00;;;;;;;6.60;2.37;;;4.50;99.90;;;;;;5137891;27;20432;-45
2022/02/23 04:12:26;;;;;;;4.10;2.20;;;4.50;99.90;;;;;;5139560;27;20425;-46
2022/02/23 04:14:51;;;;;;;7.67;2.20;;;4.50;99.90;;;;;;5140469;27;20409;-45
2022/02/23 04:17:17;;;;;;;7.97;2.70;;;4.50;99.90;;;;;;5140000;27;20456;-45
2022/02/23 04:19:43;;;;;;;7.27;2.73;;;4.40;99.90;;;;;;5139353;27;20191;-45
2022/02/23 04:22:08;;;;;;;8.67;4.40;;;4.40;99.90;;;;;;5139344;27;20550;-45
2022/02/23 04:24:34;;;;;;;8.07;4.50;;;4.40;99.90;;;;;;5139865;27;20188;-45
2022/02/23 04:27:00;;;;;;;9.37;4.13;;;4.40;99.90;;;;;;5140825;27;20386;-45
2022/02/23 04:29:27;;;;;;;5.60;3.13;;;4.30;99.90;;;;;;5139248;27;20192;-45
2022/02/23 04:31:52;;;;;;;5.70;2.87;;;4.30;99.90;;;;;;5141763;27;20476;-45
2022/02/23 04:34:18;;;;;;;5.10;2.63;;;4.30;99.90;;;;;;5140558;27;20907;-46
2022/02/23 04:36:44;;;;;;;7.00;3.07;;;4.30;99.90;;;;;;5140549;27;20286;-45
2022/02/23 04:39:09;;;;;;;7.13;2.00;;;4.30;99.90;;;;;;5140497;27;20531;-45
2022/02/23 04:41:35;;;;;;;6.70;2.50;;;4.30;99.90;;;;;;5141707;27;20218;-45
2022/02/23 04:44:01;;;;;;;8.30;2.93;;;4.30;99.90;;;;;;5140067;27;20202;-45
2022/02/23 04:46:27;;;;;;;6.97;2.30;;;4.30;99.90;;;;;;5140660;27;20184;-45
2022/02/23 04:48:52;;;;;;;4.70;2.30;;;4.40;99.90;;;;;;5139895;27;20240;-45
2022/02/23 04:51:19;;;;;;;9.30;4.63;;;4.40;99.90;;;;;;5141536;27;20417;-46
2022/02/23 04:53:46;;;;;;;3.80;2.13;;;4.30;99.90;;;;;;5139896;27;20200;-45
2022/02/23 04:56:12;;;;;;;4.97;2.30;;;4.40;99.90;;;;;;5140862;27;20702;-45
2022/02/23 04:58:37;;;;;;;5.17;2.90;;;4.40;99.90;;;;;;5139359;27;20437;-45
2022/02/23 05:01:04;;;;;;;4.27;2.80;;;4.40;99.90;;;;;;5139423;27;20199;-46
2022/02/23 05:03:30;;;;;;;6.27;2.30;;;4.40;99.90;;;;;;5138617;27;20187;-42
2022/02/23 05:05:58;;;;;;;6.63;2.53;;;4.40;99.90;;;;;;5140589;27;20520;-42
2022/02/23 05:08:24;;;;;;;5.60;2.80;;;4.40;99.90;;;;;;5139136;27;20436;-42
2022/02/23 05:10:50;;;;;;;8.17;3.43;;;4.50;99.90;;;;;;5139212;27;20417;-42
2022/02/23 05:13:16;;;;;;;3.73;2.57;;;4.50;99.90;;;;;;5139764;27;20823;-43
2022/02/23 05:15:41;;;;;;;4.03;2.27;;;4.40;99.90;;;;;;5141072;27;20191;-42
2022/02/23 05:18:08;;;;;;;6.33;3.00;;;4.40;99.90;;;;;;5140716;27;20195;-43
2022/02/23 05:20:34;;;;;;;6.83;3.23;;;4.40;99.90;;;;;;5141307;27;20288;-42
2022/02/23 05:23:00;;;;;;;5.27;2.40;;;4.40;99.90;;;;;;5139744;27;20436;-43
2022/02/23 05:25:26;;;;;;;4.63;2.80;;;4.30;99.90;;;;;;5140479;27;20413;-43
2022/02/23 05:27:52;;;;;;;4.70;2.57;;;4.30;99.90;;;;;;5138919;27;20429;-49
2022/02/23 05:30:18;;;;;;;3.90;2.80;;;4.20;99.90;;;;;;5139254;27;20504;-42
2022/02/23 05:32:44;;;;;;;5.73;2.50;;;4.20;99.90;;;;;;5139282;27;20256;-44
2022/02/23 05:35:10;;;;;;;4.50;1.90;;;4.20;99.90;;;;;;5138720;27;20405;-42
2022/02/23 05:37:36;;;;;;;5.00;2.00;;;4.10;99.90;;;;;;5137721;27;20463;-42
2022/02/23 05:40:03;;;;;;;4.70;2.00;;;4.10;99.90;;;;;;5138746;27;20427;-44
2022/02/23 05:42:29;;;;;;;6.87;1.97;;;4.00;99.90;;;;;;5137177;27;20417;-42
2022/02/23 05:44:54;;;;;;;4.60;1.80;;;4.00;99.90;;;;;;5118900;27;20745;-43
2022/02/23 05:47:20;;;;;;;4.67;2.50;;;4.00;99.90;;;;;;5136371;27;20205;-43
2022/02/23 05:49:46;;;;;;;4.60;1.67;;;3.90;99.90;;;;;;5134779;27;20485;-42
2022/02/23 05:52:15;;;;;;;5.57;2.30;;;3.90;99.90;;;;;;5137275;27;20550;-41
2022/02/23 05:54:41;;;;;;;4.70;2.40;;;3.80;99.90;;;;;;5136252;27;20199;-42
2022/02/23 05:57:07;;;;;;;5.13;2.20;;;3.80;99.90;;;;;;5119053;27;20421;-41
2022/02/23 05:59:33;;;;;;;5.23;2.00;;;3.70;99.90;;;;;;5135067;27;20505;-41
2022/02/23 06:01:58;;;;;;;5.13;1.93;;;3.70;99.90;;;;;;5137212;27;20207;-42
2022/02/23 06:04:24;;;;;;;4.13;2.60;;;3.60;99.90;;;;;;5135882;27;20621;-41
2022/02/23 06:06:50;;;;;;;7.90;2.43;;;3.60;99.90;;;;;;5137377;27;20184;-42
2022/02/23 06:09:16;;;;;;;5.10;2.30;;;3.60;99.90;;;;;;5134284;27;20256;-43
2022/02/23 06:11:43;;;;;;;7.30;2.60;;;3.50;99.90;;;;;;5133269;27;20274;-42
2022/02/23 06:14:10;;;;;;;3.27;1.80;;;3.50;99.90;;;;;;5134636;27;20443;-42
2022/02/23 06:16:36;;;;;;;8.40;2.07;;;3.40;99.90;;;;;;5133868;27;20755;-40
2022/02/23 06:19:02;;;;;;;7.03;1.87;;;3.40;99.90;;;;;;5132850;27;20470;-41
2022/02/23 06:21:28;;;;;;;3.90;1.70;;;3.30;99.90;;;;;;5133080;27;20488;-44
2022/02/23 06:23:55;;;;;;;3.40;1.87;;;3.30;99.90;;;;;;5132725;27;20422;-41
2022/02/23 06:26:22;;;;;;;3.93;1.77;;;3.30;99.90;;;;;;5134380;27;20842;-42
2022/02/23 06:28:47;;;;;;;4.00;1.83;;;3.30;99.90;;;;;;5132227;27;20509;-41
2022/02/23 06:31:13;;;;;;;5.63;2.43;;;3.30;99.90;;;;;;5134192;27;20417;-41
2022/02/23 06:33:42;;;;;;;6.30;2.53;;;3.30;99.90;;;;;;5118077;27;20474;-44
2022/02/23 06:36:10;;;;;;;5.93;2.63;;;3.30;99.90;;;;;;5116792;28;20275;-43
2022/02/23 06:38:41;;;;;;;5.03;2.20;;;3.30;99.90;;;;;;5115371;28;20427;-41
2022/02/23 06:41:13;;;;;;;4.80;2.20;;;3.40;99.90;;;;;;5113005;28;20530;-40
2022/02/23 06:43:40;;;;;;;3.20;2.13;;;3.40;99.90;;;;;;5113564;28;20448;-41
2022/02/23 06:46:06;;;;;;;6.13;2.60;;;3.50;99.90;;;;;;5110925;28;20409;-41
2022/02/23 06:48:32;;;;;;;5.33;2.50;;;3.60;99.90;;;;;;5111619;28;20437;-41
2022/02/23 06:50:58;;;;;;;6.40;2.00;;;3.80;99.90;;;;;;5113923;28;20192;-43
2022/02/23 06:53:24;;;;;;;2.60;2.00;;;4.10;99.90;;;;;;5115458;28;20425;-41
2022/02/23 06:55:50;;;;;;;8.83;2.50;;;4.40;99.90;;;;;;5111933;28;20303;-42
2022/02/23 06:58:16;;;;;;;4.13;2.40;;;4.60;99.90;;;;;;5115216;28;20412;-43
2022/02/23 07:00:42;;;;;;;7.70;2.43;;;4.70;99.90;;;;;;5112946;28;20485;-43
2022/02/23 07:03:08;;;;;;;4.80;2.50;;;4.90;99.90;;;;;;5114596;28;20180;-41
2022/02/23 07:05:34;;;;;;;3.57;2.10;;;5.00;99.90;;;;;;5113364;28;20426;-42
2022/02/23 07:08:03;;;;;;;4.97;2.40;;;5.20;99.90;;;;;;5115948;28;20410;-43
2022/02/23 07:10:30;;;;;;;3.50;2.10;;;5.40;99.90;;;;;;5117401;28;20468;-40
2022/02/23 07:12:56;;;;;;;4.10;2.63;;;5.60;99.90;;;;;;5117106;28;20770;-41
2022/02/23 07:15:24;;;;;;;5.33;2.43;;;5.80;99.90;;;;;;5114688;28;20433;-41
2022/02/23 07:17:50;;;;;;;3.33;2.57;;;6.10;99.90;;;;;;5113865;28;20806;-41
2022/02/23 07:20:16;;;;;;;5.77;3.90;;;6.30;99.90;;;;;;5113617;28;20464;-42
2022/02/23 07:22:42;;;;;;;4.13;3.10;;;6.50;99.90;;;;;;5116862;28;20406;-42
2022/02/23 07:25:09;;;;;;;5.00;3.43;;;6.80;99.90;;;;;;5115695;28;20906;-41
2022/02/23 07:27:35;;;;;;;5.20;2.83;;;7.20;99.70;;;;;;5116619;28;20168;-42
2022/02/23 07:30:04;;;;;;;4.03;2.73;;;7.60;99.20;;;;;;5116326;28;20449;-42
2022/02/23 07:32:32;;;;;;;3.60;2.17;;;7.90;98.60;;;;;;5113376;28;20523;-45
2022/02/23 07:34:58;;;;;;;7.23;2.73;;;8.00;98.00;;;;;;5114587;28;20644;-43
2022/02/23 07:37:24;;;;;;;3.93;2.00;;;8.10;97.80;;;;;;5113723;28;20789;-42
2022/02/23 07:39:52;;;;;;;8.37;3.50;;;8.40;99.90;;;;;;5112473;28;20625;-42
2022/02/23 07:42:19;;;;;;;4.00;2.27;;;8.70;99.90;;;;;;5112914;28;20557;-43
2022/02/23 07:44:46;;;;;;;5.50;2.80;;;9.10;99.90;;;;;;5111957;28;20713;-42
2022/02/23 07:47:12;;;;;;;11.87;5.33;;;9.50;99.90;;;;;;5116434;28;20672;-43
2022/02/23 07:49:38;;;;;;;13.53;5.30;;;9.80;99.90;;;;;;5117456;28;20436;-42
2022/02/23 07:52:04;;;;;;;6.77;5.00;;;9.70;98.80;;;;;;5120502;28;20520;-43
2022/02/23 07:54:30;;;;;;;9.80;5.93;;;9.50;97.40;;;;;;5117142;28;20460;-43
2022/02/23 07:56:56;;;;;;;11.97;6.70;;;9.50;96.70;;;;;;5118091;28;20863;-41
2022/02/23 07:59:21;;;;;;;6.33;5.00;;;9.80;96.30;;;;;;5116301;28;20716;-44
2022/02/23 08:01:48;;;;;;;8.00;4.43;;;10.10;94.90;;;;;;5117952;28;20246;-42
2022/02/23 08:04:15;;;;;;;6.20;2.77;;;10.60;93.70;;;;;;5118456;27;20191;-46
2022/02/23 08:06:41;;;;;;;5.70;2.97;;;10.90;92.40;;;;;;5120108;28;20500;-42
2022/02/23 08:09:08;;;;;;;8.10;3.73;;;11.20;92.00;;;;;;5117658;28;20521;-41
2022/02/23 08:11:36;;;;;;;7.70;3.37;;;11.80;91.30;;;;;;5119513;28;20197;-41
2022/02/23 08:14:03;;;;;;;5.40;3.00;;;12.50;90.70;;;;;;5119117;28;20428;-44
2022/02/23 08:19:35;;;;;;;4.30;2.43;;;13.50;84.10;;;;;;5116929;28;20426;-41
2022/02/23 08:22:06;;;;;;;4.10;2.00;;;13.70;84.60;;;;;;5117680;28;20525;-42
2022/02/23 08:24:33;;;;;;;5.33;1.83;;;14.50;83.20;;;;;;5117827;28;20504;-41
2022/02/23 08:27:00;;;;;;;4.67;1.90;;;14.80;80.70;;;;;;5117541;28;20406;-43
2022/02/23 08:29:26;;;;;;;5.00;2.20;;;14.10;75.70;;;;;;5116111;28;20437;-43
2022/02/23 08:31:52;;;;;;;4.63;1.73;;;13.40;79.80;;;;;;5099012;28;20462;-44
2022/02/23 08:34:18;;;;;;;3.70;2.07;;;13.10;81.20;;;;;;5116525;28;20203;-40
2022/02/23 08:36:47;;;;;;;5.93;2.23;;;12.90;81.30;;;;;;5117168;28;20524;-42
2022/02/23 08:39:15;;;;;;;5.30;2.13;;;12.80;83.90;;;;;;5117025;28;20422;-40
2022/02/23 08:41:41;;;;;;;2.80;2.10;;;12.90;83.60;;;;;;5118806;28;20536;-42
2022/02/23 08:44:07;;;;;;;6.97;2.30;;;12.90;83.10;;;;;;5117318;28;20429;-41
2022/02/23 08:46:37;;;;;;;5.27;2.67;;;13.40;84.80;;;;;;5118480;28;20408;-41
2022/02/23 08:49:04;;;;;;;4.37;2.23;;;13.90;82.40;;;;;;5115273;28;20474;-41
2022/02/23 08:51:30;;;;;;;3.67;1.57;;;14.00;79.40;;;;;;5117265;28;20410;-40
2022/02/23 08:53:56;;;;;;;4.60;2.27;;;14.80;79.60;;;;;;5115895;28;20653;-41
2022/02/23 08:56:22;;;;;;;3.30;1.33;;;15.90;77.20;;;;;;5116304;28;20509;-44
2022/02/23 08:58:48;;;;;;;5.23;1.93;;;17.20;74.60;;;;;;5117639;28;20833;-44
2022/02/23 09:01:14;;;;;;;4.23;1.43;;;18.50;67.80;;;;;;5116544;28;20469;-41
2022/02/23 09:03:40;;;;;;;3.00;1.60;;;19.40;66.00;;;;;;5117347;28;20425;-41
2022/02/23 09:06:06;;;;;;;6.83;2.20;;;20.40;62.30;;;;;;5117549;28;20197;-41
2022/02/23 09:08:32;;;;;;;6.03;1.80;;;20.50;57.30;;;;;;5117531;28;20436;-42
2022/02/23 09:10:58;;;;;;;5.00;1.60;;;20.60;56.80;;;;;;5115569;28;20433;-42
2022/02/23 09:13:24;;;;;;;2.97;1.70;;;21.30;53.80;;;;;;5117543;28;20400;-45
2022/02/23 09:15:50;;;;;;;3.10;1.43;;;21.60;51.00;;;;;;5116122;28;20263;-45
2022/02/23 09:18:15;;;;;;;3.40;1.80;;;21.90;51.00;;;;;;5118274;28;20497;-43
2022/02/23 09:20:41;;;;;;;2.67;1.40;;;22.30;49.10;;;;;;5116858;28;20214;-42
2022/02/23 09:23:07;;;;;;;3.77;1.70;;;22.50;48.60;;;;;;5113638;28;20184;-43
2022/02/23 09:25:32;;;;;;;4.40;1.80;;;22.70;47.50;;;;;;5115622;28;20626;-41
2022/02/23 09:27:58;;;;;;;3.27;1.93;;;23.20;46.20;;;;;;5115742;28;20176;-45
2022/02/23 09:30:24;;;;;;;4.00;2.03;;;23.10;44.90;;;;;;5113383;28;20215;-46
2022/02/23 09:32:49;;;;;;;5.57;1.70;;;22.40;44.40;;;;;;5114737;28;20347;-43
2022/02/23 09:35:16;;;;;;;6.30;2.50;;;22.50;43.10;;;;;;5114177;28;20253;-41
2022/02/23 09:37:42;;;;;;;4.97;1.70;;;22.30;42.90;;;;;;5116530;28;20414;-42
2022/02/23 09:40:09;;;;;;;3.00;1.37;;;22.30;43.90;;;;;;5114225;28;20433;-45
2022/02/23 09:42:35;;;;;;;5.73;2.00;;;22.60;42.10;;;;;;5117381;28;20180;-41
2022/02/23 09:45:03;;;;;;;9.07;1.87;;;22.40;42.00;;;;;;5116650;28;20828;-41
2022/02/23 09:47:32;;;;;;;3.40;1.50;;;22.70;42.80;;;;;;5118012;28;20417;-44
2022/02/23 09:50:12;;;;;;;3.10;1.53;;;23.10;41.50;;;;;;5118859;28;20554;-43
2022/02/23 09:52:37;;;;;;;4.83;1.80;;;23.00;41.30;;;;;;5116423;28;20712;-43
2022/02/23 09:55:04;;;;;;;3.57;1.80;;;22.50;42.10;;;;;;5118165;28;20409;-42
2022/02/23 09:57:30;;;;;;;5.50;1.63;;;21.60;42.10;;;;;;5117783;28;20199;-42
2022/02/23 09:59:57;;;;;;;4.80;2.00;;;21.60;43.60;;;;;;5117843;28;20962;-44
2022/02/23 10:02:23;;;;;;;5.67;1.50;;;21.40;43.40;;;;;;5116525;28;20243;-44
2022/02/23 10:04:49;;;;;;;7.27;2.10;;;21.60;43.50;;;;;;5117198;28;20497;-42
2022/02/23 10:07:16;;;;;;;7.10;2.10;;;21.00;43.80;;;;;;5115651;28;20430;-41
2022/02/23 10:09:44;;;;;;;4.37;2.20;;;21.30;43.70;;;;;;5131145;27;20422;-43
2022/02/23 10:12:24;;;;;;;4.03;1.40;;;22.00;43.40;;;;;;5136842;27;20443;-44
2022/02/23 10:14:52;;;;;;;4.77;1.63;;;23.00;43.30;;;;;;5137736;27;20404;-41
2022/02/23 10:17:36;;;;;;;4.43;1.67;;;23.70;41.10;;;;;;5120319;27;20445;-44
2022/02/23 10:20:01;;;;;;;3.20;1.87;;;24.00;40.90;;;;;;5139399;27;20410;-46
2022/02/23 10:22:28;;;;;;;3.67;1.80;;;23.20;39.10;;;;;;5137196;27;20480;-44
2022/02/23 10:24:58;;;;;;;4.43;1.63;;;21.50;40.20;;;;;;5138063;27;20207;-41
2022/02/23 10:27:25;;;;;;;4.93;1.97;;;20.00;41.70;;;;;;5135557;27;20822;-42
2022/02/23 10:29:56;;;;;;;5.43;1.83;;;18.80;42.80;;;;;;5139287;27;20414;-42
2022/02/23 10:32:23;;;;;;;5.33;1.47;;;17.70;44.10;;;;;;5136911;27;20486;-46
2022/02/23 10:34:52;;;;;;;5.83;1.77;;;17.10;45.50;;;;;;5139158;27;20416;-41
2022/02/23 10:37:20;;;;;;;4.47;1.73;;;16.70;46.50;;;;;;5136971;27;20497;-44
2022/02/23 10:39:55;;;;;;;2.43;1.40;;;16.80;46.70;;;;;;5137715;27;20496;-44
2022/02/23 10:42:26;;;;;;;4.50;1.63;;;17.90;47.70;;;;;;5135959;27;20500;-43
2022/02/23 10:44:54;;;;;;;3.20;1.20;;;18.30;46.00;;;;;;5135683;27;20903;-45
2022/02/23 10:47:31;;;;;;;3.93;1.47;;;18.30;44.80;;;;;;5134801;27;20440;-44
2022/02/23 10:50:10;;;;;;;3.40;1.40;;;18.40;45.70;;;;;;5136494;27;20412;-45
2022/02/23 10:52:38;;;;;;;5.77;1.83;;;18.40;46.20;;;;;;5136217;27;20444;-44
2022/02/23 10:55:20;;;;;;;3.27;1.27;;;18.30;46.10;;;;;;5138154;27;20723;-44
2022/02/23 10:57:54;;;;;;;4.17;1.77;;;17.60;46.00;;;;;;5122776;27;20421;-44
2022/02/23 11:00:23;;;;;;;4.37;1.50;;;16.30;47.80;;;;;;5117358;28;20405;-42
2022/02/23 11:02:52;;;;;;;3.47;1.30;;;15.50;49.50;;;;;;5118969;27;20424;-45
2022/02/23 11:05:23;;;;;;;4.13;1.90;;;16.50;49.40;;;;;;5137910;27;20764;-43
2022/02/23 11:07:49;;;;;;;5.30;2.43;;;16.80;48.80;;;;;;5138640;27;20417;-44
2022/02/23 11:10:15;;;;;;;4.63;1.53;;;17.30;48.40;;;;;;5138307;27;20416;-43
2022/02/23 11:12:45;;;;;;;3.80;1.47;;;17.20;48.50;;;;;;5136417;27;20439;-43
2022/02/23 11:15:15;;;;;;;4.83;1.60;;;17.40;48.90;;;;;;5136908;27;20600;-44
2022/02/23 11:17:44;;;;;;;6.27;2.10;;;18.30;47.80;;;;;;5134056;27;20429;-45
2022/02/23 11:20:10;;;;;;;3.43;1.40;;;18.50;48.00;;;;;;5136136;27;20437;-44
2022/02/23 11:22:38;;;;;;;2.50;1.50;;;19.30;47.00;;;;;;5135135;27;20467;-43
2022/02/23 11:25:05;;;;;;;4.30;1.67;;;20.70;46.40;;;;;;5135940;27;20426;-41
2022/02/23 11:27:31;;;;;;;4.87;1.60;;;22.60;43.50;;;;;;5135103;27;20436;-43
2022/02/23 11:30:05;;;;;;;3.53;1.60;;;22.50;42.40;;;;;;5136736;27;20420;-41
2022/02/23 11:32:41;;;;;;;3.97;1.60;;;23.70;40.20;;;;;;5134094;28;20490;-43
2022/02/23 11:35:07;;;;;;;4.17;1.40;;;23.10;40.80;;;;;;5135287;28;20471;-41
2022/02/23 11:37:33;;;;;;;3.53;1.53;;;22.60;40.90;;;;;;5135038;28;20427;-43
2022/02/23 11:40:00;;;;;;;2.97;1.37;;;22.60;41.10;;;;;;5135981;28;20421;-44
2022/02/23 11:42:26;;;;;;;3.20;1.30;;;22.60;41.20;;;;;;5136356;27;20918;-43
2022/02/23 11:45:06;;;;;;;4.50;1.90;;;23.50;40.70;;;;;;5137180;28;20409;-43
2022/02/23 11:47:31;;;;;;;3.10;1.50;;;23.70;40.00;;;;;;5134764;27;20642;-45
2022/02/23 11:50:05;;;;;;;4.30;1.70;;;25.10;39.50;;;;;;5136062;27;20406;-44
2022/02/23 11:52:31;;;;;;;6.33;1.77;;;27.40;38.50;;;;;;5134694;27;20195;-44
2022/02/23 11:55:20;;;;;;;3.17;1.70;;;28.40;36.40;;;;;;5135745;28;20424;-42
2022/02/23 11:57:50;;;;;;;3.63;1.53;;;28.10;33.30;;;;;;5134208;28;20447;-43
2022/02/23 12:00:35;;;;;;;3.20;1.80;;;27.00;33.50;;;;;;5135668;27;20403;-44
2022/02/23 12:03:02;;;;;;;4.43;1.80;;;25.80;35.00;;;;;;5121778;28;20862;-44
2022/02/23 12:06:00;;;;;;;5.83;2.00;;;24.20;35.90;;;;;;5134395;27;20433;-42
2022/02/23 12:08:50;;;;;;;4.93;2.50;;;22.50;36.80;;;;;;5135710;27;20819;-43
2022/02/23 12:11:23;;;;;;;5.27;1.93;;;22.40;38.20;;;;;;5133436;27;20912;-45
2022/02/23 12:13:55;;;;;;;14.20;8.90;;;24.70;38.80;;;;;;5135042;27;20492;-43
2022/02/23 12:16:25;;;;;;;3.77;1.97;;;26.70;35.90;;;;;;5133499;27;20421;-46
2022/02/23 12:18:53;;;;;;;4.70;1.53;;;28.00;33.70;;;;;;5134527;28;20424;-42
2022/02/23 12:21:19;;;;;;;3.87;2.27;;;26.10;33.50;;;;;;5133167;27;20998;-43
2022/02/23 12:23:46;;;;;;;4.63;1.93;;;24.70;35.00;;;;;;5132303;28;20424;-45
2022/02/23 12:26:17;;;;;;;4.73;1.70;;;22.80;36.10;;;;;;5132493;27;20507;-44
2022/02/23 12:28:48;;;;;;;3.07;1.70;;;22.10;36.80;;;;;;5133029;28;20424;-43
2022/02/23 12:31:20;;;;;;;5.00;1.50;;;21.20;37.90;;;;;;5133689;27;20453;-43
2022/02/23 12:33:52;;;;;;;7.30;2.00;;;20.50;38.10;;;;;;5138804;27;20825;-44
2022/02/23 12:36:29;;;;;;;4.50;1.40;;;19.60;39.20;;;;;;5135528;27;20496;-45
2022/02/23 12:38:56;;;;;;;3.33;1.57;;;18.60;40.10;;;;;;5139372;27;20807;-45
2022/02/23 12:41:24;;;;;;;4.07;2.17;;;18.60;41.90;;;;;;5137654;27;20428;-44
2022/02/23 12:43:56;;;;;;;3.60;1.50;;;20.20;41.70;;;;;;5137623;27;20722;-41
2022/02/23 12:46:22;;;;;;;6.50;2.00;;;22.90;40.20;;;;;;5135372;27;20578;-42
2022/02/23 12:48:48;;;;;;;3.33;1.67;;;25.10;37.40;;;;;;5133844;27;20535;-42
2022/02/23 12:51:14;;;;;;;5.50;2.23;;;26.10;35.10;;;;;;5137538;27;20208;-43
2022/02/23 12:53:45;;;;;;;3.07;1.90;;;28.20;33.90;;;;;;5137715;27;20429;-44
2022/02/23 12:56:45;;;;;;;5.00;2.13;;;28.50;31.90;;;;;;5139412;27;20418;-43